Time;durP1;ratioP1;P1;durP2;ratioP2;P2;SDS_P1;SDS_P2;PMS_P1;PMS_P2;Temp;Humidity;BMP_temperature;BMP_pressure;BME280_temperature;BME280_humidity;BME280_pressure;Samples;Min_cycle;Max_cycle;Signal;HPM_P1;HPM_P2
2024/03/26 00:01:40;;;;;;;;;;;;;;;15.23;50.90;100221.09;5052679;28;1236;-60
2024/03/26 00:04:06;;;;;;;;;;;;;;;16.35;48.23;100229.06;5078277;28;1918;-61
2024/03/26 00:06:32;;;;;;;;;;;;;;;17.41;45.77;100230.31;5078720;28;1320;-62
2024/03/26 00:08:57;;;;;;;;;;;;;;;16.63;47.35;100234.88;5078958;28;1148;-61
2024/03/26 00:11:24;;;;;;;;;;;;;;;15.97;48.88;100234.22;5078212;28;1095;-62
2024/03/26 00:13:49;;;;;;;;;;;;;;;15.69;49.57;100232.97;5078093;28;1014;-62
2024/03/26 00:16:15;;;;;;;;;;;;;;;15.54;50.00;100231.09;5077506;28;1142;-61
2024/03/26 00:18:40;;;;;;;;;;;;;;;15.26;50.64;100227.91;5066996;28;1222;-61
2024/03/26 00:21:06;;;;;;;;;;;;;;;15.54;50.21;100236.59;5076429;28;1060;-59
2024/03/26 00:23:32;;;;;;;;;;;;;;;17.07;46.30;100236.72;5054049;28;1870;-59
2024/03/26 00:25:57;;;;;;;;;;;;;;;17.73;44.73;100244.53;5076381;28;1066;-62
2024/03/26 00:28:23;;;;;;;;;;;;;;;16.53;47.55;100249.50;5065892;28;1088;-62
2024/03/26 00:30:48;;;;;;;;;;;;;;;16.06;48.75;100251.75;5064369;28;1054;-61
2024/03/26 00:33:14;;;;;;;;;;;;;;;15.79;49.51;100243.06;5065501;28;1146;-61
2024/03/26 00:35:39;;;;;;;;;;;;;;;15.49;49.91;100244.84;5064115;28;1063;-59
2024/03/26 00:38:05;;;;;;;;;;;;;;;15.37;50.16;100258.84;5065755;28;999;-58
2024/03/26 00:40:31;;;;;;;;;;;;;;;15.22;50.38;100266.00;5063845;28;1074;-58
2024/03/26 00:42:56;;;;;;;;;;;;;;;16.58;47.50;100259.66;5065213;28;1984;-58
2024/03/26 00:45:22;;;;;;;;;;;;;;;17.56;44.98;100259.56;5064065;28;1110;-58
2024/03/26 00:47:47;;;;;;;;;;;;;;;16.79;46.64;100257.56;5060960;28;1056;-59
2024/03/26 00:50:13;;;;;;;;;;;;;;;16.17;48.16;100265.38;5063687;28;1099;-59
2024/03/26 00:52:39;;;;;;;;;;;;;;;15.83;49.10;100263.38;5052240;28;1052;-59
2024/03/26 00:55:04;;;;;;;;;;;;;;;15.57;49.79;100257.94;5063961;28;1054;-58
2024/03/26 00:57:30;;;;;;;;;;;;;;;15.37;50.26;100259.66;5045595;28;1123;-58
2024/03/26 00:59:55;;;;;;;;;;;;;;;15.24;50.38;100268.47;5070824;28;1163;-58
2024/03/26 01:02:21;;;;;;;;;;;;;;;16.02;48.94;100278.09;5064986;28;1913;-59
2024/03/26 01:04:47;;;;;;;;;;;;;;;17.28;45.57;100277.75;5063884;28;1067;-59
2024/03/26 01:07:12;;;;;;;;;;;;;;;17.26;45.69;100288.19;5057505;28;1091;-57
2024/03/26 01:09:38;;;;;;;;;;;;;;;16.35;47.54;100289.41;5071055;28;1159;-60
2024/03/26 01:12:03;;;;;;;;;;;;;;;15.93;48.87;100293.47;5061296;28;1094;-60
2024/03/26 01:14:29;;;;;;;;;;;;;;;15.64;49.39;100288.63;5045942;28;1258;-61
2024/03/26 01:16:54;;;;;;;;;;;;;;;15.47;49.75;100293.59;5071097;28;1200;-59
2024/03/26 01:19:20;;;;;;;;;;;;;;;15.15;50.40;100281.06;5070768;28;1063;-61
2024/03/26 01:21:47;;;;;;;;;;;;;;;15.10;50.62;100298.31;5044800;28;1069;-61
2024/03/26 01:24:13;;;;;;;;;;;;;;;16.74;46.80;100304.25;5061524;28;1917;-61
2024/03/26 01:26:38;;;;;;;;;;;;;;;17.55;44.89;100293.66;5064549;28;1301;-61
2024/03/26 01:29:04;;;;;;;;;;;;;;;16.45;47.09;100301.44;5077291;28;1056;-61
2024/03/26 01:31:29;;;;;;;;;;;;;;;15.90;48.49;100296.78;5077088;28;1121;-61
2024/03/26 01:33:55;;;;;;;;;;;;;;;15.68;49.29;100300.69;5076531;28;1125;-61
2024/03/26 01:36:21;;;;;;;;;;;;;;;15.44;49.93;100294.97;5047597;28;1118;-61
2024/03/26 01:38:46;;;;;;;;;;;;;;;15.48;49.83;100306.22;5063806;28;1151;-61
2024/03/26 01:41:12;;;;;;;;;;;;;;;17.07;45.99;100308.16;5057534;28;1084;-62
2024/03/26 01:43:37;;;;;;;;;;;;;;;17.38;44.87;100312.53;5056896;28;1906;-60
2024/03/26 01:46:03;;;;;;;;;;;;;;;16.36;47.51;100307.53;5053425;28;1128;-62
2024/03/26 01:48:28;;;;;;;;;;;;;;;15.90;48.43;100296.78;5062402;28;1222;-61
2024/03/26 01:50:54;;;;;;;;;;;;;;;15.60;49.07;100303.16;5076556;28;1210;-60
2024/03/26 01:53:20;;;;;;;;;;;;;;;15.40;49.65;100305.69;5076980;28;1067;-60
2024/03/26 01:55:45;;;;;;;;;;;;;;;15.25;50.28;100307.63;5029142;28;1164;-57
2024/03/26 01:58:11;;;;;;;;;;;;;;;16.35;47.54;100319.59;5058857;28;1087;-60
2024/03/26 02:00:36;;;;;;;;;;;;;;;17.48;44.62;100325.38;5052754;28;1086;-60
2024/03/26 02:03:02;;;;;;;;;;;;;;;16.67;46.60;100329.28;5069045;28;1980;-59
2024/03/26 02:05:28;;;;;;;;;;;;;;;16.06;48.08;100345.00;5075993;28;1053;-61
2024/03/26 02:07:53;;;;;;;;;;;;;;;15.72;48.74;100340.16;5034858;28;1087;-61
2024/03/26 02:10:19;;;;;;;;;;;;;;;15.48;49.40;100330.88;5055360;28;1198;-59
2024/03/26 02:12:44;;;;;;;;;;;;;;;15.37;49.67;100327.31;5070382;28;1086;-59
2024/03/26 02:15:10;;;;;;;;;;;;;;;15.80;48.88;100327.00;5048150;28;1133;-61
2024/03/26 02:17:36;;;;;;;;;;;;;;;17.20;45.54;100330.56;5074679;28;1236;-59
2024/03/26 02:20:01;;;;;;;;;;;;;;;17.14;45.45;100328.94;5074570;28;1159;-61
2024/03/26 02:22:27;;;;;;;;;;;;;;;16.23;47.68;100332.84;5076161;28;1977;-60
2024/03/26 02:24:52;;;;;;;;;;;;;;;15.86;48.62;100334.09;5070060;28;1047;-60
2024/03/26 02:27:18;;;;;;;;;;;;;;;15.58;49.39;100336.31;5056199;28;1131;-60
2024/03/26 02:29:43;;;;;;;;;;;;;;;15.41;49.48;100339.38;5047337;28;1087;-60
2024/03/26 02:32:12;;;;;;;;;;;;;;;15.18;50.08;100349.81;5076252;28;1103;-60
2024/03/26 02:34:38;;;;;;;;;;;;;;;16.49;47.13;100363.72;5075571;28;1082;-60
2024/03/26 02:37:03;;;;;;;;;;;;;;;17.51;44.67;100360.50;5068849;28;1044;-57
2024/03/26 02:39:29;;;;;;;;;;;;;;;16.60;46.42;100359.78;5074301;28;1161;-60
2024/03/26 02:41:54;;;;;;;;;;;;;;;15.99;48.28;100358.19;5065453;28;1174;-60
2024/03/26 02:44:20;;;;;;;;;;;;;;;15.74;48.79;100359.88;5073009;28;1997;-61
2024/03/26 02:46:45;;;;;;;;;;;;;;;15.51;49.44;100354.97;5076392;28;1079;-61
2024/03/26 02:49:11;;;;;;;;;;;;;;;15.30;49.77;100363.22;5059467;28;1095;-62
2024/03/26 02:51:36;;;;;;;;;;;;;;;15.17;50.25;100366.53;5056302;28;1064;-61
2024/03/26 02:54:02;;;;;;;;;;;;;;;16.71;46.54;100366.03;5074613;28;1234;-59
2024/03/26 02:56:28;;;;;;;;;;;;;;;17.63;44.09;100360.94;5075842;28;1083;-58
2024/03/26 02:58:54;;;;;;;;;;;;;;;16.54;46.61;100365.63;5070323;28;1087;-61
2024/03/26 03:01:19;;;;;;;;;;;;;;;15.99;47.88;100371.91;5063096;28;1142;-59
2024/03/26 03:03:45;;;;;;;;;;;;;;;15.68;48.86;100371.13;5070765;28;1984;-60
2024/03/26 03:06:10;;;;;;;;;;;;;;;15.49;49.26;100379.09;5044252;28;1047;-59
2024/03/26 03:08:36;;;;;;;;;;;;;;;15.26;49.65;100381.28;5067834;28;1142;-58
2024/03/26 03:11:02;;;;;;;;;;;;;;;15.75;48.61;100379.88;5067373;28;1083;-59
2024/03/26 03:13:28;;;;;;;;;;;;;;;17.19;45.27;100381.13;5059837;28;1123;-59
2024/03/26 03:15:53;;;;;;;;;;;;;;;17.12;45.38;100386.94;5055997;28;1170;-59
2024/03/26 03:18:19;;;;;;;;;;;;;;;16.20;47.45;100382.78;5055171;28;1138;-59
2024/03/26 03:20:45;;;;;;;;;;;;;;;15.81;48.27;100388.94;5038119;28;1296;-58
2024/03/26 03:23:10;;;;;;;;;;;;;;;15.59;48.92;100401.00;5056458;28;1972;-59
2024/03/26 03:25:36;;;;;;;;;;;;;;;15.40;49.35;100404.31;5067320;28;1078;-60
2024/03/26 03:28:02;;;;;;;;;;;;;;;15.20;49.79;100418.81;5074400;28;1120;-61
2024/03/26 03:30:28;;;;;;;;;;;;;;;15.45;49.45;100419.94;5063988;28;1202;-61
2024/03/26 03:32:53;;;;;;;;;;;;;;;17.01;45.49;100419.19;5060849;28;1091;-59
2024/03/26 03:35:19;;;;;;;;;;;;;;;17.57;44.26;100414.31;5075630;28;1075;-60
2024/03/26 03:37:44;;;;;;;;;;;;;;;16.42;46.77;100413.44;5066525;28;1083;-60
2024/03/26 03:40:10;;;;;;;;;;;;;;;15.90;48.00;100417.44;5067555;28;1159;-60
2024/03/26 03:42:36;;;;;;;;;;;;;;;15.68;48.60;100418.56;5052545;28;1914;-60
2024/03/26 03:45:01;;;;;;;;;;;;;;;15.38;49.50;100417.47;5055656;28;1063;-60
2024/03/26 03:47:27;;;;;;;;;;;;;;;15.21;49.69;100428.69;5073678;28;1079;-60
2024/03/26 03:49:52;;;;;;;;;;;;;;;16.38;47.09;100436.22;5063973;28;1036;-60
2024/03/26 03:52:18;;;;;;;;;;;;;;;17.48;44.56;100438.88;5073395;28;1211;-59
2024/03/26 03:54:44;;;;;;;;;;;;;;;16.65;46.24;100446.81;5075243;28;1079;-60
2024/03/26 03:57:09;;;;;;;;;;;;;;;16.02;47.71;100452.78;5062031;28;1123;-60
2024/03/26 03:59:35;;;;;;;;;;;;;;;15.72;48.54;100451.69;5066282;28;1206;-62
2024/03/26 04:02:00;;;;;;;;;;;;;;;15.50;49.17;100441.03;5059087;28;1051;-59
2024/03/26 04:04:26;;;;;;;;;;;;;;;15.32;49.69;100448.69;5079165;28;1905;-59
2024/03/26 04:06:51;;;;;;;;;;;;;;;15.14;50.07;100444.56;5078829;28;1082;-59
2024/03/26 04:09:17;;;;;;;;;;;;;;;16.41;46.93;100444.72;5079082;28;1074;-59
2024/03/26 04:11:43;;;;;;;;;;;;;;;17.40;44.39;100439.47;5078874;28;1121;-58
2024/03/26 04:14:08;;;;;;;;;;;;;;;16.36;46.79;100433.75;5068596;28;1242;-60
2024/03/26 04:16:35;;;;;;;;;;;;;;;15.84;48.34;100443.22;5062614;28;2564;-59
2024/03/26 04:19:01;;;;;;;;;;;;;;;15.55;48.73;100446.50;5052648;28;2105;-62
2024/03/26 04:21:26;;;;;;;;;;;;;;;15.31;49.65;100460.75;5046944;28;1970;-60
2024/03/26 04:23:52;;;;;;;;;;;;;;;15.20;49.83;100453.63;5031367;28;1914;-60
2024/03/26 04:26:18;;;;;;;;;;;;;;;15.82;48.48;100459.97;5062957;28;2434;-60
2024/03/26 04:28:43;;;;;;;;;;;;;;;17.17;44.87;100460.28;5055559;28;2132;-59
2024/03/26 04:31:09;;;;;;;;;;;;;;;17.12;44.88;100463.06;5068711;28;1044;-60
2024/03/26 04:33:34;;;;;;;;;;;;;;;16.23;47.15;100465.34;5072929;28;1145;-60
2024/03/26 04:36:00;;;;;;;;;;;;;;;15.80;48.07;100469.56;5048524;28;1123;-60
2024/03/26 04:38:26;;;;;;;;;;;;;;;15.47;48.98;100471.72;5058225;28;868;-61
2024/03/26 04:40:51;;;;;;;;;;;;;;;15.36;49.05;100474.47;5057949;28;1142;-60
2024/03/26 04:43:17;;;;;;;;;;;;;;;15.20;49.46;100475.53;5068097;28;1909;-60
2024/03/26 04:45:42;;;;;;;;;;;;;;;16.45;46.62;100471.59;5048188;28;1166;-60
2024/03/26 04:48:08;;;;;;;;;;;;;;;17.47;44.35;100485.88;5068016;28;1050;-59
2024/03/26 04:50:33;;;;;;;;;;;;;;;16.73;45.89;100492.06;5065747;28;1192;-64
2024/03/26 04:52:59;;;;;;;;;;;;;;;16.04;47.54;100489.78;5061915;28;1009;-66
2024/03/26 04:55:24;;;;;;;;;;;;;;;15.66;48.72;100504.88;5074129;28;1032;-64
2024/03/26 04:57:51;;;;;;;;;;;;;;;15.53;48.66;100504.34;5066549;28;926;-61
2024/03/26 05:00:16;;;;;;;;;;;;;;;15.38;48.91;100510.59;5057175;28;2508;-58
2024/03/26 05:02:43;;;;;;;;;;;;;;;15.75;47.88;100511.44;5075990;28;1977;-61
2024/03/26 05:05:09;;;;;;;;;;;;;;;17.22;43.94;100517.94;5074286;28;1071;-58
2024/03/26 05:07:35;;;;;;;;;;;;;;;17.25;43.45;100517.34;5069939;28;1038;-58
2024/03/26 05:10:00;;;;;;;;;;;;;;;17.48;43.84;100521.34;5065491;28;1055;-61
2024/03/26 05:12:26;;;;;;;;;;;;;;;16.74;45.25;100523.91;5056735;28;1144;-59
2024/03/26 05:14:52;;;;;;;;;;;;;;;16.18;46.39;100524.91;5064919;28;1051;-57
2024/03/26 05:17:17;;;;;;;;;;;;;;;17.42;43.98;100533.47;5067555;28;1198;-58
2024/03/26 05:19:43;;;;;;;;;;;;;;;16.28;46.30;100533.09;5071304;28;996;-59
2024/03/26 05:22:08;;;;;;;;;;;;;;;15.88;46.71;100534.81;5047044;28;1095;-60
2024/03/26 05:24:34;;;;;;;;;;;;;;;15.84;46.04;100550.16;5071101;28;1966;-61
2024/03/26 05:27:00;;;;;;;;;;;;;;;16.05;46.55;100554.53;5047685;28;912;-63
2024/03/26 05:29:27;;;;;;;;;;;;;;;17.64;44.23;100566.03;5060094;28;2512;-61
2024/03/26 05:31:53;;;;;;;;;;;;;;;16.43;46.63;100573.41;5066865;28;1051;-60
2024/03/26 05:34:18;;;;;;;;;;;;;;;15.95;47.06;100579.22;5043745;28;1166;-64
2024/03/26 05:36:44;;;;;;;;;;;;;;;15.72;46.82;100584.13;5046747;28;1253;-60
2024/03/26 05:39:11;;;;;;;;;;;;;;;16.00;46.70;100586.63;5059144;28;1024;-61
2024/03/26 05:41:37;;;;;;;;;;;;;;;17.55;44.89;100592.50;5044737;28;1360;-62
2024/03/26 05:44:02;;;;;;;;;;;;;;;16.90;45.93;100601.59;5042946;28;1950;-63
2024/03/26 05:46:28;;;;;;;;;;;;;;;16.22;47.13;100595.38;5040217;28;969;-67
2024/03/26 05:48:53;;;;;;;;;;;;;;;15.82;47.26;100608.00;5058725;28;1060;-64
2024/03/26 05:51:19;;;;;;;;;;;;;;;16.72;46.66;100608.50;5060036;28;945;-63
2024/03/26 05:53:45;;;;;;;;;;;;;;;16.56;46.80;100610.44;5059534;28;1122;-64
2024/03/26 05:56:10;;;;;;;;;;;;;;;15.98;47.18;100617.06;5042886;28;1305;-62
2024/03/26 05:58:36;;;;;;;;;;;;;;;15.79;46.75;100624.97;5050378;28;1131;-63
2024/03/26 06:01:05;;;;;;;;;;;;;;;16.26;46.90;100636.81;5037091;28;2617;-64
2024/03/26 06:03:30;;;;;;;;;;;;;;;17.74;44.63;100642.97;5047153;28;1909;-64
2024/03/26 06:05:56;;;;;;;;;;;;;;;16.74;46.89;100648.28;5040928;28;1509;-62
2024/03/26 06:08:21;;;;;;;;;;;;;;;16.21;47.33;100648.59;5041217;28;1088;-60
2024/03/26 06:10:47;;;;;;;;;;;;;;;15.92;47.25;100645.56;5066156;28;1155;-65
2024/03/26 06:13:13;;;;;;;;;;;;;;;17.14;46.05;100647.66;5069962;28;1166;-63
2024/03/26 06:15:38;;;;;;;;;;;;;;;16.17;47.44;100647.53;5059259;28;1072;-63
2024/03/26 06:18:04;;;;;;;;;;;;;;;15.90;47.25;100647.78;5060354;28;1047;-66
2024/03/26 06:20:30;;;;;;;;;;;;;;;17.58;45.18;100644.16;5076044;28;1075;-64
2024/03/26 06:22:55;;;;;;;;;;;;;;;16.54;46.75;100645.59;5053746;28;1964;-62
2024/03/26 06:25:21;;;;;;;;;;;;;;;16.49;46.64;100642.84;5057509;28;1053;-62
2024/03/26 06:27:47;;;;;;;;;;;;;;;17.56;44.16;100654.63;5071833;28;1107;-62
2024/03/26 06:30:13;;;;;;;;;;;;;;;16.47;46.28;100662.34;5066230;28;2715;-62
2024/03/26 06:32:39;;;;;;;;;;;;;;;16.15;46.55;100660.69;5045398;28;1112;-61
2024/03/26 06:35:04;;;;;;;;;;;;;;;16.81;45.93;100661.72;5048713;28;1496;-65
2024/03/26 06:37:31;;;;;;;;;;;;;;;17.22;44.73;100655.31;5070817;28;1057;-67
2024/03/26 06:39:56;;;;;;;;;;;;;;;16.36;46.60;100656.03;5036962;28;884;-69
2024/03/26 06:42:22;;;;;;;;;;;;;;;16.08;46.59;100665.63;5044666;28;1052;-64
2024/03/26 06:44:47;;;;;;;;;;;;;;;17.32;45.10;100669.03;5061057;28;1914;-67
2024/03/26 06:47:13;;;;;;;;;;;;;;;16.99;45.62;100668.59;5075233;28;1075;-66
2024/03/26 06:49:39;;;;;;;;;;;;;;;16.31;46.73;100675.22;5057531;28;1016;-62
2024/03/26 06:52:05;;;;;;;;;;;;;;;16.02;47.13;100674.91;5049019;28;1036;-62
2024/03/26 06:54:31;;;;;;;;;;;;;;;17.56;44.72;100671.13;5053880;28;1029;-61
2024/03/26 06:56:56;;;;;;;;;;;;;;;16.45;46.94;100671.94;5073492;28;1004;-64
2024/03/26 06:59:24;;;;;;;;;;;;;;;16.10;46.98;100668.91;5051623;28;2573;-64
2024/03/26 07:01:50;;;;;;;;;;;;;;;16.40;46.92;100678.25;5051247;28;1151;-63
2024/03/26 07:04:15;;;;;;;;;;;;;;;17.47;45.16;100672.81;5059055;28;1914;-64
2024/03/26 07:06:41;;;;;;;;;;;;;;;16.42;47.02;100674.16;5069026;28;1116;-62
2024/03/26 07:09:07;;;;;;;;;;;;;;;16.17;46.96;100663.16;5062838;28;1047;-64
2024/03/26 07:11:33;;;;;;;;;;;;;;;17.77;44.62;100664.41;5062459;28;1174;-67
2024/03/26 07:13:58;;;;;;;;;;;;;;;17.42;45.39;100659.94;5075128;28;1337;-65
2024/03/26 07:16:24;;;;;;;;;;;;;;;16.62;46.82;100664.25;5071323;28;942;-65
2024/03/26 07:18:50;;;;;;;;;;;;;;;16.25;46.88;100660.69;5063515;28;1107;-64
2024/03/26 07:21:15;;;;;;;;;;;;;;;17.15;46.11;100660.28;5074708;28;1050;-65
2024/03/26 07:23:41;;;;;;;;;;;;;;;17.02;45.92;100658.97;5075462;28;1918;-66
2024/03/26 07:26:06;;;;;;;;;;;;;;;16.42;46.67;100665.91;5074618;28;1126;-64
2024/03/26 07:28:33;;;;;;;;;;;;;;;16.17;46.68;100661.25;5058217;28;907;-62
2024/03/26 07:30:59;;;;;;;;;;;;;;;16.56;46.69;100671.66;5069130;28;2877;-67
2024/03/26 07:33:24;;;;;;;;;;;;;;;17.45;45.43;100667.59;5067860;28;1250;-66
2024/03/26 07:35:50;;;;;;;;;;;;;;;16.48;46.96;100674.13;5073488;28;1187;-60
2024/03/26 07:38:16;;;;;;;;;;;;;;;16.14;46.91;100677.41;5070642;28;1150;-66
2024/03/26 07:40:43;;;;;;;;;;;;;;;16.10;46.43;100684.53;5075056;28;1058;-66
2024/03/26 07:43:09;;;;;;;;;;;;;;;16.93;46.28;100680.69;5079040;28;1917;-66
2024/03/26 07:45:34;;;;;;;;;;;;;;;17.24;45.71;100681.41;5078050;28;1090;-66
2024/03/26 07:48:02;;;;;;;;;;;;;;;16.40;47.08;100687.31;5066582;28;1104;-66
2024/03/26 07:50:28;;;;;;;;;;;;;;;16.84;46.54;100685.06;5065166;28;1264;-66
2024/03/26 07:52:53;;;;;;;;;;;;;;;17.35;45.41;100682.22;5060165;28;1013;-61
2024/03/26 07:55:19;;;;;;;;;;;;;;;16.43;47.08;100684.00;5074162;28;1095;-65
2024/03/26 07:57:45;;;;;;;;;;;;;;;16.17;47.02;100685.94;5070032;28;1122;-67
2024/03/26 08:00:11;;;;;;;;;;;;;;;16.26;46.85;100677.97;5054130;28;2429;-67
2024/03/26 08:02:41;;;;;;;;;;;;;;;17.14;46.00;100683.38;5078837;28;1985;-69
2024/03/26 08:05:07;;;;;;;;;;;;;;;16.39;46.96;100682.09;5062160;28;875;-64
2024/03/26 08:07:32;;;;;;;;;;;;;;;16.24;47.28;100674.66;5063324;28;1070;-60
2024/03/26 08:09:59;;;;;;;;;;;;;;;17.44;45.18;100682.44;5070603;28;933;-61
2024/03/26 08:12:25;;;;;;;;;;;;;;;16.43;47.12;100678.50;5078251;28;1003;-62
2024/03/26 08:14:50;;;;;;;;;;;;;;;16.21;46.62;100678.78;5077377;28;1041;-69
2024/03/26 08:17:16;;;;;;;;;;;;;;;15.95;46.81;100694.41;5058314;28;835;-61
2024/03/26 08:19:41;;;;;;;;;;;;;;;15.93;46.77;100693.03;5056899;28;1143;-65
2024/03/26 08:22:07;;;;;;;;;;;;;;;17.43;45.49;100684.38;5051190;28;1266;-61
2024/03/26 08:24:33;;;;;;;;;;;;;;;16.37;47.24;100673.31;5033569;28;1902;-59
2024/03/26 08:26:58;;;;;;;;;;;;;;;16.23;47.53;100673.06;5063945;28;950;-62
2024/03/26 08:29:24;;;;;;;;;;;;;;;16.86;46.63;100674.66;5069517;28;2540;-58
2024/03/26 08:31:50;;;;;;;;;;;;;;;16.23;47.25;100681.28;5041819;28;1420;-62
2024/03/26 08:34:15;;;;;;;;;;;;;;;16.84;46.80;100672.16;5067213;28;1028;-60
2024/03/26 08:36:41;;;;;;;;;;;;;;;16.86;46.36;100663.66;5052592;28;1043;-61
2024/03/26 08:39:09;;;;;;;;;;;;;;;16.33;47.32;100661.25;5058121;28;1583;-64
2024/03/26 08:41:36;;;;;;;;;;;;;;;15.99;47.05;100662.59;5061236;28;1179;-64
2024/03/26 08:44:03;;;;;;;;;;;;;;;17.47;45.18;100661.81;5069583;28;1972;-62
2024/03/26 08:46:29;;;;;;;;;;;;;;;16.94;46.27;100649.38;5053836;28;1131;-58
2024/03/26 08:48:55;;;;;;;;;;;;;;;16.41;46.95;100652.44;5060766;28;1115;-59
2024/03/26 08:51:26;;;;;;;;;;;;;;;16.25;46.39;100648.88;5055351;28;1075;-60
2024/03/26 08:53:51;;;;;;;;;;;;;;;16.40;46.94;100648.88;5053988;28;1067;-60
2024/03/26 08:56:17;;;;;;;;;;;;;;;17.07;46.16;100643.28;5058979;28;1062;-61
2024/03/26 08:58:42;;;;;;;;;;;;;;;16.17;47.47;100631.06;5076785;28;2595;-65
2024/03/26 09:01:08;;;;;;;;;;;;;;;16.67;46.85;100636.78;5057519;28;1036;-66
2024/03/26 09:03:34;;;;;;;;;;;;;;;16.62;46.93;100634.06;5076399;28;1879;-63
2024/03/26 09:05:59;;;;;;;;;;;;;;;16.70;46.97;100638.13;5076978;28;1042;-64
2024/03/26 09:08:25;;;;;;;;;;;;;;;18.03;43.78;100625.72;5075232;28;1099;-66
2024/03/26 09:10:50;;;;;;;;;;;;;;;16.83;46.38;100623.84;5077679;28;1082;-67
2024/03/26 09:13:16;;;;;;;;;;;;;;;16.47;46.53;100603.88;5063624;28;1070;-66
2024/03/26 09:15:43;;;;;;;;;;;;;;;16.29;46.44;100611.56;5073905;28;1214;-64
2024/03/26 09:18:08;;;;;;;;;;;;;;;16.05;46.42;100609.38;5050175;28;1112;-61
2024/03/26 09:20:34;;;;;;;;;;;;;;;15.97;46.34;100609.94;5048060;28;1472;-60
2024/03/26 09:22:59;;;;;;;;;;;;;;;17.26;45.69;100593.19;5051020;28;1905;-66
2024/03/26 09:25:25;;;;;;;;;;;;;;;16.30;47.26;100612.38;5062114;28;1211;-62
2024/03/26 09:27:51;;;;;;;;;;;;;;;16.14;47.18;100604.16;5064254;28;1066;-62
2024/03/26 09:30:16;;;;;;;;;;;;;;;17.48;45.23;100611.25;5062506;28;2578;-63
2024/03/26 09:32:42;;;;;;;;;;;;;;;16.49;47.25;100616.22;5050423;28;1020;-62
2024/03/26 09:35:08;;;;;;;;;;;;;;;16.14;46.96;100617.88;5076258;28;1146;-61
2024/03/26 09:37:34;;;;;;;;;;;;;;;17.77;44.72;100603.09;5076387;28;1007;-59
2024/03/26 09:40:00;;;;;;;;;;;;;;;16.97;46.53;100609.53;5054427;28;1540;-59
2024/03/26 09:42:25;;;;;;;;;;;;;;;16.42;47.16;100604.69;5056462;28;1003;-61
2024/03/26 09:44:51;;;;;;;;;;;;;;;16.18;46.83;100615.44;5049311;28;1910;-63
2024/03/26 09:47:19;;;;;;;;;;;;;;;17.51;45.50;100607.91;5054349;28;1358;-66
2024/03/26 09:49:45;;;;;;;;;;;;;;;16.93;46.78;100609.28;5049670;28;1051;-57
2024/03/26 09:52:10;;;;;;;;;;;;;;;16.54;46.78;100599.75;5050460;28;1028;-68
2024/03/26 09:54:36;;;;;;;;;;;;;;;16.25;47.04;100600.31;5038746;28;1068;-59
2024/03/26 09:57:01;;;;;;;;;;;;;;;17.00;46.37;100618.06;5060186;28;1121;-62
2024/03/26 09:59:27;;;;;;;;;;;;;;;17.04;46.35;100604.56;5059955;28;2685;-63
2024/03/26 10:01:54;;;;;;;;;;;;;;;16.46;47.08;100625.00;5052368;28;1140;-58
2024/03/26 10:04:19;;;;;;;;;;;;;;;16.43;46.23;100620.88;5067766;28;1914;-58
2024/03/26 10:06:45;;;;;;;;;;;;;;;16.16;46.52;100609.38;5057896;28;1513;-58
2024/03/26 10:09:11;;;;;;;;;;;;;;;16.02;46.16;100615.44;5043765;28;1028;-58
2024/03/26 10:11:37;;;;;;;;;;;;;;;15.85;46.11;100614.84;5056112;28;1067;-57
2024/03/26 10:14:03;;;;;;;;;;;;;;;17.19;45.87;100603.69;5045573;28;1339;-56
2024/03/26 10:16:28;;;;;;;;;;;;;;;16.69;46.84;100598.06;5045391;28;1278;-59
2024/03/26 10:18:54;;;;;;;;;;;;;;;17.86;44.74;100614.28;5040823;28;1107;-58
2024/03/26 10:21:20;;;;;;;;;;;;;;;17.16;45.96;100609.75;5038792;28;1477;-62
2024/03/26 10:23:45;;;;;;;;;;;;;;;16.82;47.13;100624.13;5068450;28;1909;-58
2024/03/26 10:26:11;;;;;;;;;;;;;;;16.53;47.93;100621.97;5064573;28;1354;-57
2024/03/26 10:28:36;;;;;;;;;;;;;;;16.31;48.85;100614.84;5053589;28;1067;-57
2024/03/26 10:31:02;;;;;;;;;;;;;;;17.18;46.94;100627.59;5054471;28;2749;-57
2024/03/26 10:33:28;;;;;;;;;;;;;;;17.55;46.14;100626.31;5060578;28;953;-56
2024/03/26 10:35:54;;;;;;;;;;;;;;;16.80;47.93;100605.16;5049222;28;1453;-57
2024/03/26 10:38:20;;;;;;;;;;;;;;;16.46;48.98;100599.50;5049544;28;920;-58
2024/03/26 10:40:47;;;;;;;;;;;;;;;16.97;47.94;100587.56;5071783;28;1110;-56
2024/03/26 10:43:13;;;;;;;;;;;;;;;17.87;45.49;100615.94;5039848;28;1906;-54
2024/03/26 10:45:39;;;;;;;;;;;;;;;16.93;47.82;100614.78;5069583;28;1098;-57
2024/03/26 10:48:05;;;;;;;;;;;;;;;16.54;48.92;100624.44;5030720;28;1483;-55
2024/03/26 10:50:31;;;;;;;;;;;;;;;16.34;49.67;100619.81;5070331;28;1092;-56
2024/03/26 10:52:56;;;;;;;;;;;;;;;17.74;46.26;100629.22;5066034;28;1115;-57
2024/03/26 10:55:22;;;;;;;;;;;;;;;17.45;46.70;100627.19;5072003;28;1131;-55
2024/03/26 10:57:48;;;;;;;;;;;;;;;16.83;48.34;100631.25;5056474;28;1119;-54
2024/03/26 11:00:14;;;;;;;;;;;;;;;16.50;49.21;100623.34;5049447;28;2419;-56
2024/03/26 11:02:40;;;;;;;;;;;;;;;17.44;47.25;100624.72;5075111;28;1970;-55
2024/03/26 11:05:05;;;;;;;;;;;;;;;17.44;46.91;100622.78;5038709;28;1386;-55
2024/03/26 11:07:37;;;;;;;;;;;;;;;16.84;48.58;100608.19;5058185;28;1005;-56
2024/03/26 11:10:08;;;;;;;;;;;;;;;16.46;49.39;100599.50;5051113;28;1631;-57
2024/03/26 11:12:37;;;;;;;;;;;;;;;17.30;47.48;100602.53;5046457;28;1029;-57
2024/03/26 11:15:14;;;;;;;;;;;;;;;17.65;46.66;100602.59;5044786;28;1156;-59
2024/03/26 11:17:55;;;;;;;;;;;;;;;16.78;49.08;100596.38;5050417;28;1441;-59
2024/03/26 11:20:21;;;;;;;;;;;;;;;16.40;49.86;100596.75;5051697;28;1349;-57
2024/03/26 11:22:47;;;;;;;;;;;;;;;16.56;49.97;100604.94;5043379;28;1906;-59
2024/03/26 11:25:23;;;;;;;;;;;;;;;17.96;46.38;100603.22;5029030;28;1432;-59
2024/03/26 11:27:49;;;;;;;;;;;;;;;17.01;48.60;100603.22;5053463;28;973;-57
2024/03/26 11:30:49;;;;;;;;;;;;;;;16.69;49.46;100604.38;5054011;28;2523;-59
2024/03/26 11:33:25;;;;;;;;;;;;;;;16.64;49.75;100595.34;5060325;28;1088;-59
2024/03/26 11:35:51;;;;;;;;;;;;;;;18.05;46.52;100587.75;5063733;28;1125;-60
2024/03/26 11:38:17;;;;;;;;;;;;;;;17.12;48.72;100589.44;5064143;28;1264;-59
2024/03/26 11:40:43;;;;;;;;;;;;;;;16.66;49.80;100588.47;5044991;28;948;-58
2024/03/26 11:43:12;;;;;;;;;;;;;;;16.45;50.40;100593.16;5074548;28;1897;-60
2024/03/26 11:45:38;;;;;;;;;;;;;;;17.33;48.50;100577.22;5053721;28;1445;-59
2024/03/26 11:48:04;;;;;;;;;;;;;;;18.11;46.08;100577.53;5078984;28;1046;-59
2024/03/26 11:50:30;;;;;;;;;;;;;;;17.08;48.58;100572.69;5058588;28;1207;-61
2024/03/26 11:52:55;;;;;;;;;;;;;;;16.84;49.57;100561.50;5045177;28;1310;-57
2024/03/26 11:55:20;;;;;;;;;;;;;;;18.21;46.31;100566.41;5072722;28;1054;-59
2024/03/26 11:57:46;;;;;;;;;;;;;;;17.55;47.77;100560.31;5060924;28;1079;-60
2024/03/26 12:00:12;;;;;;;;;;;;;;;17.05;49.42;100562.25;5055471;28;2600;-60
2024/03/26 12:02:37;;;;;;;;;;;;;;;16.76;49.96;100560.16;5067661;28;1155;-59
2024/03/26 12:05:03;;;;;;;;;;;;;;;17.51;48.84;100556.50;5066152;28;2063;-59
2024/03/26 12:07:29;;;;;;;;;;;;;;;16.95;49.95;100560.38;5069797;28;1382;-59
2024/03/26 12:09:54;;;;;;;;;;;;;;;16.41;50.33;100559.97;5062969;28;1116;-57
2024/03/26 12:12:20;;;;;;;;;;;;;;;16.38;49.81;100560.53;5078712;28;1030;-59
2024/03/26 12:14:46;;;;;;;;;;;;;;;16.05;49.95;100564.69;5060102;28;1191;-59
2024/03/26 12:17:11;;;;;;;;;;;;;;;16.20;48.76;100555.59;5073475;28;1217;-58
2024/03/26 12:19:46;;;;;;;;;;;;;;;16.12;48.42;100558.91;5062047;28;1135;-59
2024/03/26 12:22:15;;;;;;;;;;;;;;;16.01;48.26;100558.91;5021161;28;1533;-60
2024/03/26 12:24:41;;;;;;;;;;;;;;;15.94;47.89;100554.81;5044904;28;1897;-60
2024/03/26 12:27:07;;;;;;;;;;;;;;;15.77;48.03;100552.28;5072553;28;1093;-60
2024/03/26 12:29:33;;;;;;;;;;;;;;;15.71;47.37;100549.56;5044692;28;2463;-58
2024/03/26 12:31:58;;;;;;;;;;;;;;;15.64;47.42;100542.69;5061730;28;943;-59
2024/03/26 12:34:25;;;;;;;;;;;;;;;16.16;48.59;100551.75;5077458;28;1038;-59
2024/03/26 12:36:50;;;;;;;;;;;;;;;16.77;50.28;100540.66;5052762;28;1490;-59
2024/03/26 12:39:16;;;;;;;;;;;;;;;16.11;50.34;100555.34;5054001;28;992;-57
2024/03/26 12:41:41;;;;;;;;;;;;;;;15.94;49.51;100541.13;5064183;28;1060;-58